createdAt,value
2023-05-01T00:00:17.069Z,51.212055
2023-05-01T00:01:17.073Z,51.212128
2023-05-01T00:02:17.078Z,51.212280
2023-05-01T00:03:17.140Z,51.212254
2023-05-01T00:04:17.167Z,51.212299
2023-05-01T00:05:17.048Z,51.212185
2023-05-01T00:06:17.048Z,51.212208
2023-05-01T00:07:17.033Z,51.212276
2023-05-01T00:08:17.028Z,51.212193
2023-05-01T00:09:17.000Z,51.212223
2023-05-01T00:10:16.970Z,51.212101
2023-05-01T00:11:17.014Z,51.212044
2023-05-01T00:12:17.032Z,51.212063
2023-05-01T00:13:16.978Z,51.212128
2023-05-01T00:14:17.009Z,51.212101
2023-05-01T00:15:17.004Z,51.212151
2023-05-01T00:16:17.093Z,51.212170
2023-05-01T00:17:16.994Z,51.212223
2023-05-01T00:18:17.023Z,51.212177
2023-05-01T00:19:16.936Z,51.212200
2023-05-01T00:20:16.942Z,51.212383
2023-05-01T00:21:16.927Z,51.212204
2023-05-01T00:22:16.912Z,51.212185
2023-05-01T00:23:16.908Z,51.212196
2023-05-01T00:24:16.932Z,51.212299
2023-05-01T00:25:16.935Z,51.212177
2023-05-01T00:26:16.900Z,51.212029
2023-05-01T00:27:16.885Z,51.212116
2023-05-01T00:28:16.881Z,51.212299
2023-05-01T00:29:16.972Z,51.212311
2023-05-01T00:30:16.849Z,51.212303
2023-05-01T00:31:16.877Z,51.212204
2023-05-01T00:32:16.910Z,51.212227
2023-05-01T00:33:17.085Z,51.212254
2023-05-01T00:34:16.832Z,51.212334
2023-05-01T00:35:16.830Z,51.212238
2023-05-01T00:36:16.805Z,51.212116
2023-05-01T00:37:16.826Z,51.212040
2023-05-01T00:38:16.850Z,51.212143
2023-05-01T00:39:16.822Z,51.212105
2023-05-01T00:40:16.834Z,51.212166
2023-05-01T00:41:16.802Z,51.212196
2023-05-01T00:42:16.791Z,51.212257
2023-05-01T00:43:16.782Z,51.212170
2023-05-01T00:44:16.801Z,51.212204
2023-05-01T00:45:17.756Z,51.212170
2023-05-01T00:46:16.813Z,51.212193
2023-05-01T00:47:16.775Z,51.212204
2023-05-01T00:48:16.771Z,51.212177
2023-05-01T00:49:16.735Z,51.212173
2023-05-01T00:50:16.715Z,51.212032
2023-05-01T00:51:16.737Z,51.212082
2023-05-01T00:52:16.726Z,51.212105
2023-05-01T00:53:16.700Z,51.212143
2023-05-01T00:54:16.722Z,51.212223
2023-05-01T00:55:16.689Z,51.212208
2023-05-01T00:56:17.612Z,51.212116
2023-05-01T00:57:16.688Z,51.212185
2023-05-01T00:58:16.724Z,51.212143
2023-05-01T00:59:16.658Z,51.212132
2023-05-01T01:00:16.697Z,51.212105
2023-05-01T01:01:16.722Z,51.211937
2023-05-01T01:02:16.639Z,51.212067
2023-05-01T01:03:16.638Z,51.212154
2023-05-01T01:04:16.670Z,51.212132
2023-05-01T01:05:16.662Z,51.211948
2023-05-01T01:06:16.666Z,51.212296
2023-05-01T01:07:17.623Z,51.212074
2023-05-01T01:08:16.635Z,51.212059
2023-05-01T01:09:16.818Z,51.212078
2023-05-01T01:10:16.611Z,51.212105
2023-05-01T01:11:16.609Z,51.212048
2023-05-01T01:12:16.604Z,51.212143
2023-05-01T01:13:16.568Z,51.211720
2023-05-01T01:14:16.564Z,51.211742
2023-05-01T01:15:17.113Z,51.211994
2023-05-01T01:16:16.617Z,51.211926
2023-05-01T01:17:16.625Z,51.212070
2023-05-01T01:18:16.586Z,51.212086
2023-05-01T01:19:16.533Z,51.212120
2023-05-01T01:20:16.612Z,51.212177
2023-05-01T01:21:16.504Z,51.212055
2023-05-01T01:22:16.512Z,51.212067
2023-05-01T01:23:16.517Z,51.212048
2023-05-01T01:24:16.523Z,51.211937
2023-05-01T01:25:17.098Z,51.212067
2023-05-01T01:26:16.480Z,51.212296
2023-05-01T01:27:16.471Z,51.212002
2023-05-01T01:28:16.725Z,51.211876
2023-05-01T01:29:16.489Z,51.211823
2023-05-01T01:30:16.627Z,51.212013
2023-05-01T01:31:16.456Z,51.212025
2023-05-01T01:32:16.490Z,51.211933
2023-05-01T01:33:16.453Z,51.211987
2023-05-01T01:34:16.471Z,51.211964
2023-05-01T01:35:16.459Z,51.211960
2023-05-01T01:36:16.432Z,51.212101
2023-05-01T01:37:16.410Z,51.212215
2023-05-01T01:38:16.443Z,51.212208
2023-05-01T01:39:16.427Z,51.211998
2023-05-01T01:40:17.030Z,51.211952
2023-05-01T01:41:16.407Z,51.211945
2023-05-01T01:42:16.383Z,51.211990
2023-05-01T01:43:16.408Z,51.211948
2023-05-01T01:44:16.387Z,51.211929
2023-05-01T01:45:16.478Z,51.211990
2023-05-01T01:46:16.375Z,51.211987
2023-05-01T01:47:16.350Z,51.211979
2023-05-01T01:48:16.363Z,51.211834
2023-05-01T01:49:16.435Z,51.211903
2023-05-01T01:50:16.590Z,51.212044
2023-05-01T01:51:16.340Z,51.211998
2023-05-01T01:52:16.353Z,51.211906
2023-05-01T01:53:16.319Z,51.211758
2023-05-01T01:54:16.334Z,51.211643
2023-05-01T01:55:17.026Z,51.211773
2023-05-01T01:56:16.316Z,51.211918
2023-05-01T01:57:16.277Z,51.212116
2023-05-01T01:58:16.293Z,51.212109
2023-05-01T01:59:16.265Z,51.212067
2023-05-01T02:00:16.288Z,51.211945
2023-05-01T02:01:16.296Z,51.211975
2023-05-01T02:02:16.281Z,51.211910
2023-05-01T02:03:16.401Z,51.211796
2023-05-01T02:04:16.277Z,51.212067
2023-05-01T02:05:16.297Z,51.212097
2023-05-01T02:06:16.286Z,51.212124
2023-05-01T02:07:16.256Z,51.212173
2023-05-01T02:08:16.242Z,51.212135
2023-05-01T02:09:16.246Z,51.212353
2023-05-01T02:10:16.316Z,51.212204
2023-05-01T02:11:16.257Z,51.212257
2023-05-01T02:12:16.216Z,51.212254
2023-05-01T02:13:16.241Z,51.212196
2023-05-01T02:14:16.204Z,51.212185
2023-05-01T02:15:16.189Z,51.212082
2023-05-01T02:16:16.219Z,51.212135
2023-05-01T02:17:16.184Z,51.212090
2023-05-01T02:18:16.168Z,51.212154
2023-05-01T02:19:16.162Z,51.212109
2023-05-01T02:20:17.028Z,51.212078
2023-05-01T02:21:16.196Z,51.212090
2023-05-01T02:22:16.148Z,51.212143
2023-05-01T02:23:16.154Z,51.212124
2023-05-01T02:24:16.156Z,51.212101
2023-05-01T02:25:16.117Z,51.212112
2023-05-01T02:26:16.152Z,51.212154
2023-05-01T02:27:16.152Z,51.212124
2023-05-01T02:28:17.109Z,51.212154
2023-05-01T02:29:16.110Z,51.212147
2023-05-01T02:30:16.110Z,51.212147
2023-05-01T02:31:16.130Z,51.212090
2023-05-01T02:32:16.106Z,51.212151
2023-05-01T02:33:16.079Z,51.211987
2023-05-01T02:34:16.071Z,51.211903
2023-05-01T02:35:16.057Z,51.212032
2023-05-01T02:36:16.055Z,51.211994
2023-05-01T02:37:16.086Z,51.212086
2023-05-01T02:38:16.070Z,51.212074
2023-05-01T02:39:16.047Z,51.212097
2023-05-01T02:40:16.065Z,51.212116
2023-05-01T02:41:16.063Z,51.212135
2023-05-01T02:42:16.043Z,51.212151
2023-05-01T02:43:16.066Z,51.212105
2023-05-01T02:44:16.021Z,51.212093
2023-05-01T02:45:16.012Z,51.212112
2023-05-01T02:46:16.091Z,51.212147
2023-05-01T02:47:16.036Z,51.212173
2023-05-01T02:48:16.069Z,51.212189
2023-05-01T02:49:15.968Z,51.212208
2023-05-01T02:50:16.025Z,51.212254
2023-05-01T02:51:15.985Z,51.212250
2023-05-01T02:52:15.958Z,51.212139
2023-05-01T02:53:16.056Z,51.212196
2023-05-01T02:54:15.946Z,51.212185
2023-05-01T02:55:15.977Z,51.212135
2023-05-01T02:56:15.941Z,51.212105
2023-05-01T02:57:15.956Z,51.212132
2023-05-01T02:58:15.930Z,51.212219
2023-05-01T02:59:15.929Z,51.212215
2023-05-01T03:00:15.927Z,51.212204
2023-05-01T03:01:15.942Z,51.212208
2023-05-01T03:02:16.686Z,51.212204
2023-05-01T03:03:16.034Z,51.212124
2023-05-01T03:04:15.968Z,51.212063
2023-05-01T03:05:15.907Z,51.211941
2023-05-01T03:06:15.895Z,51.212009
2023-05-01T03:07:15.873Z,51.212097
2023-05-01T03:08:15.906Z,51.212101
2023-05-01T03:09:15.863Z,51.212242
2023-05-01T03:10:15.872Z,51.212215
2023-05-01T03:11:15.860Z,51.212200
2023-05-01T03:12:15.863Z,51.212044
2023-05-01T03:13:15.847Z,51.212074
2023-05-01T03:14:15.891Z,51.211933
2023-05-01T03:15:15.871Z,51.212048
2023-05-01T03:16:15.839Z,51.211906
2023-05-01T03:17:15.844Z,51.211987
2023-05-01T03:18:15.891Z,51.211937
2023-05-01T03:19:15.794Z,51.211922
2023-05-01T03:20:15.829Z,51.212040
2023-05-01T03:21:15.792Z,51.212116
2023-05-01T03:22:15.802Z,51.212196
2023-05-01T03:23:15.752Z,51.212376
2023-05-01T03:24:15.821Z,51.212158
2023-05-01T03:25:15.907Z,51.212143
2023-05-01T03:26:15.743Z,51.212288
2023-05-01T03:27:16.733Z,51.211937
2023-05-01T03:28:15.739Z,51.212093
2023-05-01T03:29:15.730Z,51.212059
2023-05-01T03:30:15.813Z,51.212158
2023-05-01T03:31:15.730Z,51.212177
2023-05-01T03:32:15.864Z,51.212135
2023-05-01T03:33:15.727Z,51.212181
2023-05-01T03:34:16.690Z,51.212299
2023-05-01T03:35:15.766Z,51.212265
2023-05-01T03:36:15.710Z,51.212250
2023-05-01T03:37:15.705Z,51.212299
2023-05-01T03:38:16.603Z,51.212193
2023-05-01T03:39:15.655Z,51.212223
2023-05-01T03:40:15.700Z,51.212364
2023-05-01T03:41:15.696Z,51.212261
2023-05-01T03:42:15.634Z,51.212139
2023-05-01T03:43:15.645Z,51.212154
2023-05-01T03:44:15.624Z,51.212044
2023-05-01T03:45:15.659Z,51.212189
2023-05-01T03:46:15.702Z,51.212124
2023-05-01T03:47:15.618Z,51.212257
2023-05-01T03:48:15.621Z,51.212208
2023-05-01T03:49:15.617Z,51.212166
2023-05-01T03:50:15.611Z,51.212147
2023-05-01T03:51:15.590Z,51.212170
2023-05-01T03:52:15.591Z,51.212257
2023-05-01T03:53:16.139Z,51.212166
2023-05-01T03:54:15.586Z,51.211967
2023-05-01T03:55:15.557Z,51.212128
2023-05-01T03:56:15.598Z,51.212185
2023-05-01T03:57:15.598Z,51.211987
2023-05-01T03:58:15.568Z,51.211880
2023-05-01T03:59:15.570Z,51.211956
2023-05-01T04:00:15.546Z,51.211937
2023-05-01T04:01:15.548Z,51.211945
2023-05-01T04:02:15.563Z,51.211876
2023-05-01T04:03:15.603Z,51.211937
2023-05-01T04:04:15.558Z,51.211704
2023-05-01T04:05:15.523Z,51.211857
2023-05-01T04:06:15.583Z,51.211876
2023-05-01T04:07:15.528Z,51.212059
2023-05-01T04:08:15.506Z,51.212021
2023-05-01T04:09:15.492Z,51.212017
2023-05-01T04:10:15.522Z,51.212059
2023-05-01T04:11:15.976Z,51.212048
2023-05-01T04:12:15.484Z,51.212151
2023-05-01T04:13:15.590Z,51.212143
2023-05-01T04:14:15.563Z,51.212185
2023-05-01T04:15:15.612Z,51.212086
2023-05-01T04:16:16.496Z,51.212185
2023-05-01T04:17:15.437Z,51.212059
2023-05-01T04:18:15.495Z,51.212086
2023-05-01T04:19:15.437Z,51.212200
2023-05-01T04:20:15.462Z,51.212223
2023-05-01T04:21:15.427Z,51.212044
2023-05-01T04:22:15.420Z,51.212067
2023-05-01T04:23:15.414Z,51.212120
2023-05-01T04:24:15.450Z,51.212093
2023-05-01T04:25:15.415Z,51.212158
2023-05-01T04:26:15.425Z,51.212074
2023-05-01T04:27:15.404Z,51.212048
2023-05-01T04:28:15.374Z,51.212170
2023-05-01T04:29:15.362Z,51.212181
2023-05-01T04:30:15.355Z,51.212196
2023-05-01T04:31:15.382Z,51.212234
2023-05-01T04:32:15.392Z,51.212158
2023-05-01T04:33:15.360Z,51.212193
2023-05-01T04:34:15.354Z,51.212200
2023-05-01T04:35:15.363Z,51.212166
2023-05-01T04:36:15.316Z,51.212204
2023-05-01T04:37:16.324Z,51.212204
2023-05-01T04:38:15.324Z,51.212212
2023-05-01T04:39:15.354Z,51.212158
2023-05-01T04:40:15.323Z,51.212154
2023-05-01T04:41:15.278Z,51.212170
2023-05-01T04:42:15.330Z,51.212189
2023-05-01T04:43:15.272Z,51.212208
2023-05-01T04:44:15.278Z,51.212238
2023-05-01T04:45:15.253Z,51.212135
2023-05-01T04:46:15.305Z,51.212032
2023-05-01T04:47:15.250Z,51.212070
2023-05-01T04:48:15.311Z,51.212128
2023-05-01T04:49:15.261Z,51.212173
2023-05-01T04:50:15.253Z,51.212154
2023-05-01T04:51:15.248Z,51.212151
2023-05-01T04:52:15.249Z,51.212139
2023-05-01T04:53:15.212Z,51.212135
2023-05-01T04:54:15.240Z,51.212078
2023-05-01T04:55:15.218Z,51.212097
2023-05-01T04:56:15.195Z,51.212093
2023-05-01T04:57:15.218Z,51.212116
2023-05-01T04:58:15.184Z,51.212116
2023-05-01T04:59:15.170Z,51.212193
2023-05-01T05:00:15.249Z,51.212120
2023-05-01T05:01:15.197Z,51.212002
2023-05-01T05:02:15.246Z,51.212074
2023-05-01T05:03:15.246Z,51.212074
2023-05-01T05:04:15.155Z,51.211899
2023-05-01T05:05:15.179Z,51.211926
2023-05-01T05:06:15.272Z,51.211983
2023-05-01T05:07:15.186Z,51.212036
2023-05-01T05:08:15.130Z,51.212063
2023-05-01T05:09:16.047Z,51.212048
2023-05-01T05:10:15.134Z,51.212093
2023-05-01T05:11:15.101Z,51.212009
2023-05-01T05:12:15.107Z,51.212017
2023-05-01T05:13:15.121Z,51.212078
2023-05-01T05:14:15.094Z,51.212032
2023-05-01T05:15:15.100Z,51.212078
2023-05-01T05:16:15.127Z,51.212051
2023-05-01T05:17:15.074Z,51.212074
2023-05-01T05:18:15.125Z,51.212082
2023-05-01T05:19:15.056Z,51.211998
2023-05-01T05:20:15.055Z,51.212086
2023-05-01T05:21:15.046Z,51.212006
2023-05-01T05:22:15.045Z,51.212154
2023-05-01T05:23:15.087Z,51.212250
2023-05-01T05:24:15.049Z,51.212109
2023-05-01T05:25:15.087Z,51.212032
2023-05-01T05:26:15.066Z,51.211990
2023-05-01T05:27:15.016Z,51.212181
2023-05-01T05:28:15.027Z,51.212090
2023-05-01T05:29:15.023Z,51.212112
2023-05-01T05:30:14.975Z,51.212044
2023-05-01T05:31:14.991Z,51.212002
2023-05-01T05:32:15.021Z,51.212086
2023-05-01T05:33:15.055Z,51.212086
2023-05-01T05:34:14.974Z,51.212173
2023-05-01T05:35:14.964Z,51.212082
2023-05-01T05:36:14.962Z,51.212090
2023-05-01T05:37:14.939Z,51.212101
2023-05-01T05:38:14.934Z,51.212139
2023-05-01T05:39:14.923Z,51.212170
2023-05-01T05:40:14.943Z,51.212128
2023-05-01T05:41:14.936Z,51.212196
2023-05-01T05:42:14.910Z,51.212231
2023-05-01T05:43:14.945Z,51.212162
2023-05-01T05:44:14.885Z,51.212124
2023-05-01T05:45:14.884Z,51.212196
2023-05-01T05:46:14.962Z,51.212097
2023-05-01T05:47:14.900Z,51.212090
2023-05-01T05:48:14.940Z,51.212101
2023-05-01T05:49:14.860Z,51.212074
2023-05-01T05:50:14.893Z,51.212116
2023-05-01T05:51:15.161Z,51.212097
2023-05-01T05:52:14.848Z,51.212013
2023-05-01T05:53:14.821Z,51.211987
2023-05-01T05:54:14.828Z,51.211906
2023-05-01T05:55:14.818Z,51.211895
2023-05-01T05:56:14.811Z,51.211712
2023-05-01T05:57:14.951Z,51.211811
2023-05-01T05:58:14.793Z,51.211906
2023-05-01T05:59:16.711Z,51.211903
2023-05-01T06:00:14.810Z,51.211784
2023-05-01T06:01:14.828Z,51.211849
2023-05-01T06:02:14.809Z,51.212208
2023-05-01T06:03:14.862Z,51.211975
2023-05-01T06:04:14.819Z,51.212006
2023-05-01T06:05:14.831Z,51.211918
2023-05-01T06:06:14.857Z,51.211937
2023-05-01T06:07:14.768Z,51.211945
2023-05-01T06:08:14.797Z,51.211842
2023-05-01T06:09:15.631Z,51.211868
2023-05-01T06:10:14.742Z,51.211994
2023-05-01T06:11:14.862Z,51.211887
2023-05-01T06:12:14.749Z,51.211777
2023-05-01T06:13:15.016Z,51.211636
2023-05-01T06:14:14.723Z,51.211746
2023-05-01T06:15:14.689Z,51.211960
2023-05-01T06:16:14.744Z,51.211777
2023-05-01T06:17:14.693Z,51.212013
2023-05-01T06:18:14.769Z,51.211937
2023-05-01T06:19:15.605Z,51.211918
2023-05-01T06:20:14.684Z,51.211975
2023-05-01T06:21:15.148Z,51.212128
2023-05-01T06:22:14.702Z,51.212296
2023-05-01T06:23:14.647Z,51.212196
2023-05-01T06:24:14.647Z,51.212032
2023-05-01T06:25:14.666Z,51.212032
2023-05-01T06:26:14.712Z,51.212204
2023-05-01T06:27:14.676Z,51.212067
2023-05-01T06:28:14.710Z,51.212097
2023-05-01T06:29:15.620Z,51.212315
2023-05-01T06:30:14.633Z,51.212162
2023-05-01T06:31:14.689Z,51.212017
2023-05-01T06:32:14.632Z,51.212082
2023-05-01T06:33:14.651Z,51.212181
2023-05-01T06:34:14.652Z,51.212204
2023-05-01T06:35:14.641Z,51.212204
2023-05-01T06:36:14.608Z,51.212124
2023-05-01T06:37:14.591Z,51.212116
2023-05-01T06:38:14.608Z,51.212135
2023-05-01T06:39:14.675Z,51.212135
2023-05-01T06:40:14.588Z,51.212261
2023-05-01T06:41:14.540Z,51.212284
2023-05-01T06:42:14.628Z,51.212021
2023-05-01T06:43:14.572Z,51.212013
2023-05-01T06:44:14.544Z,51.212025
2023-05-01T06:45:14.526Z,51.211895
2023-05-01T06:46:14.596Z,51.211952
2023-05-01T06:47:14.761Z,51.212101
2023-05-01T06:48:14.543Z,51.211906
2023-05-01T06:49:14.531Z,51.212448
2023-05-01T06:50:14.505Z,51.212063
2023-05-01T06:51:14.556Z,51.212009
2023-05-01T06:52:14.478Z,51.211693
2023-05-01T06:53:14.487Z,51.211983
2023-05-01T06:54:14.523Z,51.211910
2023-05-01T06:55:14.519Z,51.211979
2023-05-01T06:56:14.505Z,51.212025
2023-05-01T06:57:14.448Z,51.211983
2023-05-01T06:58:23.494Z,51.212124
2023-05-01T06:59:16.451Z,51.212173
2023-05-01T07:00:14.449Z,51.212215
2023-05-01T07:01:14.493Z,51.212097
2023-05-01T07:02:14.515Z,51.211910
2023-05-01T07:03:14.469Z,51.211979
2023-05-01T07:04:14.477Z,51.212025
2023-05-01T07:05:14.399Z,51.212151
2023-05-01T07:06:14.462Z,51.212204
2023-05-01T07:07:14.407Z,51.212212
2023-05-01T07:08:14.482Z,51.212170
2023-05-01T07:09:14.350Z,51.212181
2023-05-01T07:10:14.385Z,51.212036
2023-05-01T07:11:14.340Z,51.212112
2023-05-01T07:12:15.354Z,51.212189
2023-05-01T07:13:14.364Z,51.212162
2023-05-01T07:14:14.329Z,51.212151
2023-05-01T07:15:14.338Z,51.212219
2023-05-01T07:16:14.354Z,51.212219
2023-05-01T07:17:14.419Z,51.212257
2023-05-01T07:18:14.307Z,51.212189
2023-05-01T07:19:14.281Z,51.212147
2023-05-01T07:20:14.393Z,51.212151
2023-05-01T07:21:14.299Z,51.212208
2023-05-01T07:22:14.334Z,51.212158
2023-05-01T07:23:14.270Z,51.212132
2023-05-01T07:24:14.273Z,51.212151
2023-05-01T07:25:14.314Z,51.212132
2023-05-01T07:26:14.256Z,51.212112
2023-05-01T07:27:14.277Z,51.212055
2023-05-01T07:28:14.309Z,51.212040
2023-05-01T07:29:14.256Z,51.212193
2023-05-01T07:30:14.233Z,51.212097
2023-05-01T07:31:14.253Z,51.212189
2023-05-01T07:32:14.399Z,51.212173
2023-05-01T07:33:14.258Z,51.212189
2023-05-01T07:34:14.223Z,51.212185
2023-05-01T07:35:14.213Z,51.212196
2023-05-01T07:36:14.204Z,51.212204
2023-05-01T07:37:14.188Z,51.212265
2023-05-01T07:38:14.201Z,51.212177
2023-05-01T07:39:14.234Z,51.212132
2023-05-01T07:40:14.149Z,51.212070
2023-05-01T07:41:14.167Z,51.212048
2023-05-01T07:42:14.163Z,51.212025
2023-05-01T07:43:14.130Z,51.212044
2023-05-01T07:44:14.128Z,51.212120
2023-05-01T07:45:14.151Z,51.212208
2023-05-01T07:46:14.155Z,51.212135
2023-05-01T07:47:14.141Z,51.212219
2023-05-01T07:48:14.149Z,51.212200
2023-05-01T07:49:14.981Z,51.212135
2023-05-01T07:50:14.101Z,51.212212
2023-05-01T07:51:14.108Z,51.212193
2023-05-01T07:52:14.074Z,51.212112
2023-05-01T07:53:14.116Z,51.212154
2023-05-01T07:54:14.070Z,51.212151
2023-05-01T07:55:14.064Z,51.212250
2023-05-01T07:56:14.076Z,51.212067
2023-05-01T07:57:14.041Z,51.212067
2023-05-01T07:58:14.037Z,51.212063
2023-05-01T07:59:14.106Z,51.211983
2023-05-01T08:00:14.013Z,51.212093
2023-05-01T08:01:14.068Z,51.212132
2023-05-01T08:02:14.183Z,51.212288
2023-05-01T08:03:14.336Z,51.212013
2023-05-01T08:04:14.091Z,51.211922
2023-05-01T08:05:14.003Z,51.212124
2023-05-01T08:06:14.056Z,51.212070
2023-05-01T08:07:13.960Z,51.212093
2023-05-01T08:08:13.955Z,51.212029
2023-05-01T08:09:13.970Z,51.212055
2023-05-01T08:10:13.969Z,51.212097
2023-05-01T08:11:13.964Z,51.211941
2023-05-01T08:12:13.932Z,51.211655
2023-05-01T08:13:13.938Z,51.211548
2023-05-01T08:14:13.939Z,51.211784
2023-05-01T08:15:13.914Z,51.211842
2023-05-01T08:16:13.922Z,51.211819
2023-05-01T08:17:13.919Z,51.211906
2023-05-01T08:18:13.974Z,51.211586
2023-05-01T08:19:13.885Z,51.211926
2023-05-01T08:20:13.880Z,51.211914
2023-05-01T08:21:13.868Z,51.211937
2023-05-01T08:22:13.894Z,51.211773
2023-05-01T08:23:13.861Z,51.211880
2023-05-01T08:24:13.878Z,51.211830
2023-05-01T08:25:13.869Z,51.211849
2023-05-01T08:26:13.848Z,51.211887
2023-05-01T08:27:13.870Z,51.211849
2023-05-01T08:28:13.836Z,51.211842
2023-05-01T08:29:13.836Z,51.211750
2023-05-01T08:30:13.833Z,51.211754
2023-05-01T08:31:13.892Z,51.211727
2023-05-01T08:32:13.804Z,51.211777
2023-05-01T08:33:13.827Z,51.211849
2023-05-01T08:34:13.838Z,51.211922
2023-05-01T08:35:13.809Z,51.211845
2023-05-01T08:36:13.844Z,51.211899
2023-05-01T08:37:13.795Z,51.211929
2023-05-01T08:38:13.834Z,51.211823
2023-05-01T08:39:13.763Z,51.211895
2023-05-01T08:40:13.768Z,51.211834
2023-05-01T08:41:13.793Z,51.211842
2023-05-01T08:42:13.761Z,51.211884
2023-05-01T08:43:13.763Z,51.211952
2023-05-01T08:44:13.752Z,51.211983
2023-05-01T08:45:13.816Z,51.211765
2023-05-01T08:46:13.769Z,51.211761
2023-05-01T08:47:13.814Z,51.212067
2023-05-01T08:48:13.737Z,51.211872
2023-05-01T08:49:13.710Z,51.211910
2023-05-01T08:50:13.737Z,51.211964
2023-05-01T08:51:13.730Z,51.211826
2023-05-01T08:52:13.699Z,51.211906
2023-05-01T08:53:13.697Z,51.212093
2023-05-01T08:54:13.674Z,51.212078
2023-05-01T08:55:13.720Z,51.211971
2023-05-01T08:56:13.702Z,51.211899
2023-05-01T08:57:13.667Z,51.212166
2023-05-01T08:58:13.652Z,51.212135
2023-05-01T08:59:13.676Z,51.212105
2023-05-01T09:00:13.642Z,51.212070
2023-05-01T09:01:13.764Z,51.211693
2023-05-01T09:02:13.671Z,51.211948
2023-05-01T09:03:13.765Z,51.212147
2023-05-01T09:04:13.689Z,51.212257
2023-05-01T09:05:13.630Z,51.212238
2023-05-01T09:06:13.685Z,51.212040
2023-05-01T09:07:13.639Z,51.212170
2023-05-01T09:08:13.583Z,51.212341
2023-05-01T09:09:13.669Z,51.212242
2023-05-01T09:10:13.673Z,51.212112
2023-05-01T09:11:13.577Z,51.212158
2023-05-01T09:12:13.582Z,51.211975
2023-05-01T09:13:13.572Z,51.211845
2023-05-01T09:14:13.673Z,51.212364
2023-05-01T09:15:13.592Z,51.211514
2023-05-01T09:16:13.589Z,51.211845
2023-05-01T09:17:13.538Z,51.212109
2023-05-01T09:18:13.572Z,51.212162
2023-05-01T09:19:13.560Z,51.212349
2023-05-01T09:20:13.520Z,51.212437
2023-05-01T09:21:13.520Z,51.212395
2023-05-01T09:22:13.531Z,51.212135
2023-05-01T09:23:13.509Z,51.212181
2023-05-01T09:24:13.565Z,51.212013
2023-05-01T09:25:13.484Z,51.211979
2023-05-01T09:26:13.479Z,51.212311
2023-05-01T09:27:13.481Z,51.212223
2023-05-01T09:28:13.478Z,51.212070
2023-05-01T09:29:13.476Z,51.211948
2023-05-01T09:30:14.458Z,51.211807
2023-05-01T09:31:13.521Z,51.211746
2023-05-01T09:32:13.685Z,51.211872
2023-05-01T09:33:13.628Z,51.211994
2023-05-01T09:34:13.446Z,51.211987
2023-05-01T09:35:13.464Z,51.212074
2023-05-01T09:36:13.432Z,51.212219
2023-05-01T09:37:13.441Z,51.212219
2023-05-01T09:38:13.416Z,51.212051
2023-05-01T09:39:13.464Z,51.211922
2023-05-01T09:40:13.457Z,51.211960
2023-05-01T09:41:13.438Z,51.212132
2023-05-01T09:42:13.408Z,51.212292
2023-05-01T09:43:13.415Z,51.212086
2023-05-01T09:44:13.426Z,51.212055
2023-05-01T09:45:13.362Z,51.211971
2023-05-01T09:46:13.420Z,51.211967
2023-05-01T09:47:13.415Z,51.211933
2023-05-01T09:48:13.385Z,51.211933
2023-05-01T09:49:13.354Z,51.211548
2023-05-01T09:50:13.325Z,51.211941
2023-05-01T09:51:13.361Z,51.211987
2023-05-01T09:52:13.340Z,51.212093
2023-05-01T09:53:13.309Z,51.212090
2023-05-01T09:54:13.380Z,51.212208
2023-05-01T09:55:13.298Z,51.212170
2023-05-01T09:56:13.292Z,51.212109
2023-05-01T09:57:13.358Z,51.212032
2023-05-01T09:58:13.282Z,51.212181
2023-05-01T09:59:13.425Z,51.212204
2023-05-01T10:00:13.275Z,51.212158
2023-05-01T10:01:13.322Z,51.212097
2023-05-01T10:02:13.358Z,51.212189
2023-05-01T10:03:13.416Z,51.212193
2023-05-01T10:04:13.300Z,51.212162
2023-05-01T10:05:13.254Z,51.212273
2023-05-01T10:06:13.341Z,51.212376
2023-05-01T10:07:13.269Z,51.212322
2023-05-01T10:08:13.223Z,51.212257
2023-05-01T10:09:14.209Z,51.212147
2023-05-01T10:10:13.211Z,51.212265
2023-05-01T10:11:13.236Z,51.212189
2023-05-01T10:12:13.206Z,51.212208
2023-05-01T10:13:13.196Z,51.212193
2023-05-01T10:14:13.176Z,51.212200
2023-05-01T10:15:24.589Z,51.212200
2023-05-01T10:16:15.215Z,51.212299
2023-05-01T10:17:13.238Z,51.212265
2023-05-01T10:18:13.274Z,51.212223
2023-05-01T10:19:13.144Z,51.212246
2023-05-01T10:20:13.149Z,51.212135
2023-05-01T10:21:13.242Z,51.212139
2023-05-01T10:22:13.118Z,51.212242
2023-05-01T10:23:13.158Z,51.212204
2023-05-01T10:24:13.121Z,51.212212
2023-05-01T10:25:13.154Z,51.212257
2023-05-01T10:26:13.105Z,51.212212
2023-05-01T10:27:13.152Z,51.212105
2023-05-01T10:28:13.113Z,51.212162
2023-05-01T10:29:13.120Z,51.212231
2023-05-01T10:30:13.088Z,51.212318
2023-05-01T10:31:13.198Z,51.212360
2023-05-01T10:32:13.077Z,51.212303
2023-05-01T10:33:13.243Z,51.212326
2023-05-01T10:34:13.053Z,51.212189
2023-05-01T10:35:13.053Z,51.212063
2023-05-01T10:36:13.027Z,51.212048
2023-05-01T10:37:13.100Z,51.212051
2023-05-01T10:38:13.079Z,51.212051
2023-05-01T10:39:13.021Z,51.212002
2023-05-01T10:40:13.039Z,51.212040
2023-05-01T10:41:13.068Z,51.212021
2023-05-01T10:42:12.996Z,51.212048
2023-05-01T10:43:13.216Z,51.212082
2023-05-01T10:44:13.024Z,51.212124
2023-05-01T10:45:12.972Z,51.212154
2023-05-01T10:46:13.019Z,51.212097
2023-05-01T10:47:12.999Z,51.212067
2023-05-01T10:48:12.964Z,51.212212
2023-05-01T10:49:12.981Z,51.212173
2023-05-01T10:50:12.943Z,51.212337
2023-05-01T10:51:13.050Z,51.212162
2023-05-01T10:52:12.952Z,51.212139
2023-05-01T10:53:12.924Z,51.212006
2023-05-01T10:54:12.908Z,51.212006
2023-05-01T10:55:12.901Z,51.212040
2023-05-01T10:56:12.923Z,51.212082
2023-05-01T10:57:12.895Z,51.212101
2023-05-01T10:58:12.886Z,51.211960
2023-05-01T10:59:12.938Z,51.211926
2023-05-01T11:00:12.921Z,51.212063
2023-05-01T11:01:12.878Z,51.211952
2023-05-01T11:02:12.916Z,51.212120
2023-05-01T11:03:13.133Z,51.212074
2023-05-01T11:04:12.848Z,51.212063
2023-05-01T11:05:12.952Z,51.212051
2023-05-01T11:06:12.966Z,51.212044
2023-05-01T11:07:12.934Z,51.212025
2023-05-01T11:08:12.824Z,51.211956
2023-05-01T11:09:12.862Z,51.211922
2023-05-01T11:10:12.887Z,51.212128
2023-05-01T11:11:12.823Z,51.212128
2023-05-01T11:12:12.804Z,51.212109
2023-05-01T11:13:13.641Z,51.212189
2023-05-01T11:14:12.862Z,51.212139
2023-05-01T11:15:12.799Z,51.212158
2023-05-01T11:16:12.830Z,51.212116
2023-05-01T11:17:12.849Z,51.212067
2023-05-01T11:18:12.861Z,51.212013
2023-05-01T11:19:12.798Z,51.211948
2023-05-01T11:20:12.784Z,51.212055
2023-05-01T11:21:12.849Z,51.212128
2023-05-01T11:22:12.792Z,51.212139
2023-05-01T11:23:12.774Z,51.212158
2023-05-01T11:24:12.759Z,51.212044